createdAt,value
2023-03-07T00:01:03.702Z,0.40
2023-03-07T00:03:30.740Z,0.30
2023-03-07T00:06:08.861Z,0.30
2023-03-07T00:08:35.805Z,0.40
2023-03-07T00:11:08.090Z,0.50
2023-03-07T00:13:37.076Z,0.40
2023-03-07T00:16:06.120Z,0.30
2023-03-07T00:18:33.983Z,0.30
2023-03-07T00:21:05.729Z,0.30
2023-03-07T00:23:34.395Z,0.20
2023-03-07T00:26:06.645Z,0.20
2023-03-07T00:28:33.739Z,0.20
2023-03-07T00:31:03.010Z,0.30
2023-03-07T00:33:29.964Z,0.30
2023-03-07T00:35:57.968Z,0.33
2023-03-07T00:38:25.581Z,0.50
2023-03-07T00:41:25.338Z,0.80
2023-03-07T00:43:52.811Z,0.50
2023-03-07T00:46:21.852Z,0.20
2023-03-07T00:48:49.330Z,0.70
2023-03-07T00:51:18.998Z,0.40
2023-03-07T00:53:46.634Z,0.57
2023-03-07T00:56:18.738Z,0.30
2023-03-07T00:58:46.680Z,0.20
2023-03-07T01:01:16.780Z,0.40
2023-03-07T01:04:03.206Z,0.60
2023-03-07T01:06:32.261Z,0.97
2023-03-07T01:09:01.417Z,0.40
2023-03-07T01:11:30.009Z,0.30
2023-03-07T01:13:58.483Z,1.00
2023-03-07T01:16:28.910Z,0.43
2023-03-07T01:18:58.972Z,0.40
2023-03-07T01:21:27.944Z,0.47
2023-03-07T01:23:55.529Z,0.50
2023-03-07T01:26:30.940Z,0.30
2023-03-07T01:29:01.707Z,0.80
2023-03-07T01:31:30.719Z,0.60
2023-03-07T01:33:58.707Z,0.50
2023-03-07T01:36:33.197Z,0.40
2023-03-07T01:39:14.294Z,0.77
2023-03-07T01:41:46.160Z,0.47
2023-03-07T01:44:25.852Z,0.83
2023-03-07T01:46:57.713Z,0.47
2023-03-07T01:49:41.129Z,0.40
2023-03-07T01:52:13.047Z,0.40
2023-03-07T01:54:49.112Z,0.40
2023-03-07T01:57:21.287Z,0.63
2023-03-07T01:59:52.093Z,0.40
2023-03-07T02:02:22.740Z,0.70
2023-03-07T02:04:57.537Z,0.40
2023-03-07T02:07:29.396Z,0.30
2023-03-07T02:09:57.258Z,0.30
2023-03-07T02:12:24.304Z,0.40
2023-03-07T02:14:52.006Z,0.30
2023-03-07T02:17:19.785Z,0.40
2023-03-07T02:20:22.355Z,0.80
2023-03-07T02:22:50.140Z,0.50
2023-03-07T02:25:24.212Z,0.50
2023-03-07T02:27:54.043Z,0.30
2023-03-07T02:30:21.928Z,0.30
2023-03-07T02:32:51.631Z,0.20
2023-03-07T02:35:27.608Z,0.50
2023-03-07T02:38:04.933Z,0.50
2023-03-07T02:40:32.629Z,0.60
2023-03-07T02:43:09.440Z,0.30
2023-03-07T02:45:38.448Z,0.30
2023-03-07T02:48:05.462Z,1.20
2023-03-07T02:50:32.491Z,0.30
2023-03-07T02:52:59.338Z,0.30
2023-03-07T02:55:44.814Z,0.40
2023-03-07T02:58:11.766Z,0.20
2023-03-07T03:00:38.911Z,0.30
2023-03-07T03:03:05.992Z,0.30
2023-03-07T03:05:32.790Z,0.40
2023-03-07T03:07:59.575Z,0.30
2023-03-07T03:10:26.318Z,0.33
2023-03-07T03:12:53.352Z,0.50
2023-03-07T03:15:20.609Z,0.30
2023-03-07T03:17:47.559Z,0.43
2023-03-07T03:20:33.430Z,0.30
2023-03-07T03:23:00.157Z,0.40
2023-03-07T03:25:27.310Z,0.30
2023-03-07T03:27:54.570Z,0.43
2023-03-07T03:30:21.703Z,0.43
2023-03-07T03:32:48.517Z,0.37
2023-03-07T03:35:17.817Z,0.50
2023-03-07T03:37:45.425Z,0.33
2023-03-07T03:40:14.803Z,0.47
2023-03-07T03:42:44.682Z,0.60
2023-03-07T03:45:14.996Z,0.50
2023-03-07T03:47:42.105Z,0.30
2023-03-07T03:50:10.369Z,0.50
2023-03-07T03:52:37.388Z,0.50
2023-03-07T03:55:22.972Z,0.30
2023-03-07T03:57:49.750Z,0.47
2023-03-07T04:00:21.113Z,0.40
2023-03-07T04:02:48.483Z,0.50
2023-03-07T04:05:17.955Z,0.90
2023-03-07T04:07:44.768Z,0.47
2023-03-07T04:10:11.807Z,0.40
2023-03-07T04:12:38.881Z,0.40
2023-03-07T04:15:07.376Z,0.87
2023-03-07T04:17:35.968Z,0.40
2023-03-07T04:20:04.872Z,0.50
2023-03-07T04:22:32.565Z,0.90
2023-03-07T04:24:59.285Z,0.47
2023-03-07T04:27:26.697Z,0.70
2023-03-07T04:29:53.742Z,0.50
2023-03-07T04:32:21.807Z,0.73
2023-03-07T04:34:49.312Z,0.70
2023-03-07T04:37:16.083Z,0.60
2023-03-07T04:39:42.879Z,0.50
2023-03-07T04:42:11.112Z,0.90
2023-03-07T04:44:37.831Z,0.50
2023-03-07T04:49:49.151Z,0.40
2023-03-07T04:52:15.938Z,0.47
2023-03-07T04:54:42.994Z,0.50
2023-03-07T04:57:09.803Z,0.80
2023-03-07T04:59:39.252Z,0.63
2023-03-07T05:02:09.181Z,0.80
2023-03-07T05:04:36.026Z,0.53
2023-03-07T05:07:03.190Z,0.73
2023-03-07T05:09:30.408Z,0.63
2023-03-07T05:11:59.364Z,0.90
2023-03-07T05:14:26.479Z,0.60
2023-03-07T05:17:12.082Z,0.50
2023-03-07T05:19:38.853Z,0.40
2023-03-07T05:22:05.970Z,0.60
2023-03-07T05:24:32.863Z,0.60
2023-03-07T05:27:00.364Z,0.60
2023-03-07T05:29:27.311Z,0.90
2023-03-07T05:31:55.180Z,0.40
2023-03-07T05:34:22.795Z,0.53
2023-03-07T05:36:49.775Z,0.30
2023-03-07T05:39:16.942Z,0.67
2023-03-07T05:41:44.066Z,0.30
2023-03-07T05:44:11.786Z,0.20
2023-03-07T05:46:38.908Z,0.43
2023-03-07T05:49:05.748Z,0.30
2023-03-07T05:51:32.452Z,0.83
2023-03-07T05:53:59.263Z,0.30
2023-03-07T05:56:27.776Z,0.30
2023-03-07T05:58:54.637Z,0.30
2023-03-07T06:01:21.706Z,0.40
2023-03-07T06:03:48.572Z,0.20
2023-03-07T06:06:15.429Z,0.20
2023-03-07T06:08:42.887Z,0.40
2023-03-07T06:11:10.043Z,0.30
2023-03-07T06:13:38.430Z,0.30
2023-03-07T06:16:05.941Z,0.30
2023-03-07T06:18:33.000Z,0.30
2023-03-07T06:21:05.745Z,0.30
2023-03-07T06:23:37.343Z,0.23
2023-03-07T06:26:10.371Z,0.40
2023-03-07T06:28:37.501Z,0.30
2023-03-07T06:31:13.063Z,0.27
2023-03-07T06:33:40.150Z,0.43
2023-03-07T06:36:09.239Z,0.50
2023-03-07T06:38:38.081Z,0.40
2023-03-07T06:41:05.349Z,0.47
2023-03-07T06:43:33.440Z,0.40
2023-03-07T06:46:01.229Z,0.30
2023-03-07T06:48:34.873Z,0.20
2023-03-07T06:51:08.884Z,0.30
2023-03-07T06:53:37.221Z,0.30
2023-03-07T06:56:04.815Z,0.30
2023-03-07T06:58:33.482Z,0.30
2023-03-07T07:01:01.153Z,0.50
2023-03-07T07:03:28.715Z,0.40
2023-03-07T07:05:55.483Z,0.40
2023-03-07T07:08:22.280Z,0.43
2023-03-07T07:10:49.036Z,0.30
2023-03-07T07:13:15.782Z,0.40
2023-03-07T07:15:42.642Z,0.40
2023-03-07T07:18:13.334Z,0.20
2023-03-07T07:20:40.255Z,0.20
2023-03-07T07:23:07.211Z,0.40
2023-03-07T07:25:34.454Z,0.27
2023-03-07T07:28:01.385Z,0.20
2023-03-07T07:30:28.375Z,0.37
2023-03-07T07:32:55.816Z,0.30
2023-03-07T07:35:23.250Z,0.20
2023-03-07T07:37:50.720Z,0.20
2023-03-07T07:40:17.748Z,0.30
2023-03-07T07:42:54.781Z,0.40
2023-03-07T07:45:40.395Z,0.30
2023-03-07T07:48:10.232Z,0.40
2023-03-07T07:50:37.348Z,0.23
2023-03-07T07:53:04.531Z,0.30
2023-03-07T07:55:50.204Z,0.20
2023-03-07T07:58:17.421Z,0.20
2023-03-07T08:00:45.638Z,0.27
2023-03-07T08:03:13.723Z,0.20
2023-03-07T08:05:48.405Z,0.20
2023-03-07T08:08:16.513Z,0.40
2023-03-07T08:10:44.493Z,0.30
2023-03-07T08:13:15.795Z,0.30
2023-03-07T08:15:43.293Z,0.37
2023-03-07T08:18:10.954Z,0.30
2023-03-07T08:20:38.639Z,0.40
2023-03-07T08:23:05.425Z,0.60
2023-03-07T08:25:32.247Z,0.50
2023-03-07T08:27:59.413Z,1.70
2023-03-07T08:30:28.697Z,0.50
2023-03-07T08:32:56.515Z,0.60
2023-03-07T08:35:24.782Z,0.50
2023-03-07T08:37:56.089Z,0.40
2023-03-07T08:40:25.135Z,0.50
2023-03-07T08:42:52.669Z,0.47
2023-03-07T08:45:20.524Z,0.47
2023-03-07T08:47:48.561Z,0.50
2023-03-07T08:50:15.303Z,0.43
2023-03-07T08:52:43.324Z,0.60
2023-03-07T08:55:10.501Z,0.83
2023-03-07T08:57:37.252Z,0.47
2023-03-07T09:00:08.178Z,0.70
2023-03-07T09:02:35.046Z,0.70
2023-03-07T09:05:02.031Z,0.70
2023-03-07T09:07:28.757Z,0.60
2023-03-07T09:09:55.516Z,0.60
2023-03-07T09:12:22.726Z,0.40
2023-03-07T09:15:09.026Z,0.80
2023-03-07T09:17:35.756Z,0.70
2023-03-07T09:20:02.574Z,0.80
2023-03-07T09:22:29.360Z,0.70
2023-03-07T09:24:56.093Z,0.73
2023-03-07T09:27:22.989Z,1.77
2023-03-07T09:29:49.772Z,0.87
2023-03-07T09:32:16.751Z,0.60
2023-03-07T09:34:43.498Z,0.90
2023-03-07T09:37:10.563Z,0.60
2023-03-07T09:39:37.344Z,0.70
2023-03-07T09:42:03.993Z,0.80
2023-03-07T09:44:33.626Z,1.10
2023-03-07T09:47:47.838Z,0.70
2023-03-07T09:50:24.206Z,0.87
2023-03-07T09:52:57.130Z,1.03
2023-03-07T09:55:25.204Z,0.90
2023-03-07T09:57:56.166Z,0.90
2023-03-07T10:00:29.131Z,1.20
2023-03-07T10:03:24.256Z,2.37
2023-03-07T10:05:55.526Z,1.60
2023-03-07T10:08:29.543Z,1.20
2023-03-07T10:11:08.438Z,1.30
2023-03-07T10:14:13.527Z,0.70
2023-03-07T10:17:05.092Z,0.80
2023-03-07T10:19:51.814Z,0.80
2023-03-07T10:22:22.507Z,1.23
2023-03-07T10:24:57.746Z,0.80
2023-03-07T10:27:29.093Z,0.63
2023-03-07T10:29:58.730Z,1.53
2023-03-07T10:33:01.331Z,0.40
2023-03-07T10:35:42.082Z,0.30
2023-03-07T10:38:19.645Z,0.47
2023-03-07T10:41:06.633Z,0.80
2023-03-07T10:43:34.877Z,2.60
2023-03-07T10:46:25.447Z,1.67
2023-03-07T10:48:56.299Z,1.20
2023-03-07T10:51:38.122Z,0.67
2023-03-07T10:54:10.799Z,0.30
2023-03-07T10:56:37.652Z,0.40
2023-03-07T10:59:09.552Z,0.40
2023-03-07T11:01:39.359Z,0.93
2023-03-07T11:04:19.510Z,0.47
2023-03-07T11:06:58.261Z,0.53
2023-03-07T11:09:34.981Z,1.00
2023-03-07T11:12:22.787Z,0.30
2023-03-07T11:15:10.286Z,0.93
2023-03-07T11:17:44.096Z,0.57
2023-03-07T11:20:30.773Z,0.60
2023-03-07T11:23:26.217Z,0.60
2023-03-07T11:28:40.750Z,0.40
2023-03-07T11:31:13.452Z,0.50
2023-03-07T11:34:16.678Z,0.30
2023-03-07T11:36:48.782Z,0.60
2023-03-07T11:39:36.789Z,0.70
2023-03-07T11:42:15.464Z,0.70
2023-03-07T11:45:03.693Z,1.13
2023-03-07T11:47:51.926Z,1.10
2023-03-07T11:50:31.138Z,2.20
2023-03-07T11:53:09.794Z,0.70
2023-03-07T11:55:42.874Z,0.70
2023-03-07T11:58:15.568Z,0.60
2023-03-07T12:01:16.059Z,1.07
2023-03-07T12:04:04.100Z,0.40
2023-03-07T12:06:54.002Z,0.63
2023-03-07T12:09:53.133Z,0.60
2023-03-07T12:12:41.840Z,0.73
2023-03-07T12:15:30.163Z,0.53
2023-03-07T12:18:24.472Z,0.30
2023-03-07T12:21:18.754Z,0.33
2023-03-07T12:24:04.473Z,0.50
2023-03-07T12:27:04.239Z,0.50
2023-03-07T12:29:46.276Z,0.50
2023-03-07T12:32:25.446Z,0.40
2023-03-07T12:34:52.282Z,0.60
2023-03-07T12:37:27.432Z,0.50
2023-03-07T12:40:04.592Z,1.40
2023-03-07T12:42:56.556Z,0.60
2023-03-07T12:45:45.478Z,0.40
2023-03-07T12:48:18.265Z,0.57
2023-03-07T12:51:00.212Z,0.80
2023-03-07T12:53:33.828Z,0.87
2023-03-07T12:56:20.739Z,0.83
2023-03-07T13:01:44.098Z,2.20
2023-03-07T13:04:37.412Z,0.63
2023-03-07T13:07:18.033Z,1.73
2023-03-07T13:09:47.363Z,1.30
2023-03-07T13:12:16.158Z,1.20
2023-03-07T13:14:53.273Z,1.00
2023-03-07T13:17:33.245Z,0.50
2023-03-07T13:20:15.073Z,0.60
2023-03-07T13:22:41.728Z,0.50
2023-03-07T13:25:25.916Z,1.57
2023-03-07T13:27:57.931Z,0.70
2023-03-07T13:30:26.064Z,0.50
2023-03-07T13:32:54.284Z,1.47
2023-03-07T13:35:39.309Z,1.63
2023-03-07T13:38:24.276Z,0.77
2023-03-07T13:41:00.379Z,0.60
2023-03-07T13:43:28.345Z,0.60
2023-03-07T13:46:24.729Z,0.30
2023-03-07T13:48:54.215Z,0.20
2023-03-07T13:51:21.842Z,0.20
2023-03-07T13:53:53.316Z,0.30
2023-03-07T13:56:28.102Z,0.20
2023-03-07T13:59:18.142Z,0.20
2023-03-07T14:01:51.378Z,0.43
2023-03-07T14:04:38.907Z,0.20
2023-03-07T14:07:21.374Z,0.10
2023-03-07T14:10:21.517Z,0.20
2023-03-07T14:13:08.236Z,0.60
2023-03-07T14:16:00.761Z,0.37
2023-03-07T14:18:50.797Z,0.20
2023-03-07T14:24:45.023Z,0.40
2023-03-07T14:27:14.616Z,0.30
2023-03-07T14:29:49.420Z,1.87
2023-03-07T14:35:15.546Z,0.30
2023-03-07T14:37:44.315Z,0.53
2023-03-07T14:40:17.044Z,0.50
2023-03-07T14:43:01.291Z,0.60
2023-03-07T14:46:05.427Z,0.30
2023-03-07T14:48:56.781Z,0.40
2023-03-07T14:51:27.390Z,0.37
2023-03-07T14:53:56.156Z,0.20
2023-03-07T14:56:30.096Z,0.27
2023-03-07T15:01:48.595Z,0.30
2023-03-07T15:04:32.524Z,0.70
2023-03-07T15:07:02.137Z,0.30
2023-03-07T15:09:29.144Z,0.60
2023-03-07T15:12:12.717Z,0.63
2023-03-07T15:14:51.561Z,0.30
2023-03-07T15:17:43.858Z,0.53
2023-03-07T15:20:18.664Z,0.57
2023-03-07T15:22:47.149Z,0.70
2023-03-07T15:25:17.656Z,0.40
2023-03-07T15:27:44.658Z,0.90
2023-03-07T15:30:26.571Z,0.77
2023-03-07T15:33:15.754Z,0.97
2023-03-07T15:35:43.939Z,0.80
2023-03-07T15:38:21.477Z,0.87
2023-03-07T15:40:48.308Z,0.60
2023-03-07T15:43:16.635Z,0.60
2023-03-07T15:48:50.371Z,0.40
2023-03-07T15:51:20.250Z,2.40
2023-03-07T15:54:16.052Z,2.03
2023-03-07T15:56:42.984Z,1.23
2023-03-07T15:59:28.500Z,1.30
2023-03-07T16:01:55.523Z,1.10
2023-03-07T16:04:39.110Z,1.00
2023-03-07T16:07:07.810Z,0.90
2023-03-07T16:09:34.538Z,0.53
2023-03-07T16:12:01.394Z,1.10
2023-03-07T16:14:33.599Z,4.90
2023-03-07T16:17:03.929Z,1.33
2023-03-07T16:19:30.936Z,0.70
2023-03-07T16:21:57.684Z,0.80
2023-03-07T16:24:24.442Z,0.60
2023-03-07T16:26:51.441Z,2.60
2023-03-07T16:29:21.993Z,1.97
2023-03-07T16:31:49.167Z,1.80
2023-03-07T16:34:20.997Z,1.80
2023-03-07T16:36:48.210Z,1.37
2023-03-07T16:39:15.827Z,3.23
2023-03-07T16:41:50.001Z,1.33
2023-03-07T16:44:19.320Z,2.40
2023-03-07T16:46:55.107Z,0.80
2023-03-07T16:49:22.006Z,1.60
2023-03-07T16:52:04.777Z,1.30
2023-03-07T16:54:32.810Z,1.40
2023-03-07T16:57:01.734Z,0.87
2023-03-07T16:59:37.446Z,0.80
2023-03-07T17:02:14.875Z,0.60
2023-03-07T17:04:44.119Z,0.60
2023-03-07T17:07:23.780Z,0.57
2023-03-07T17:09:50.912Z,0.60
2023-03-07T17:12:22.567Z,0.57
2023-03-07T17:14:49.633Z,0.40
2023-03-07T17:20:18.124Z,0.67
2023-03-07T17:22:44.918Z,0.60
2023-03-07T17:25:12.362Z,0.80
2023-03-07T17:27:43.362Z,0.70
2023-03-07T17:30:20.325Z,1.20
2023-03-07T17:32:47.722Z,0.50
2023-03-07T17:35:15.684Z,0.50
2023-03-07T17:37:43.111Z,0.50
2023-03-07T17:40:11.928Z,0.40
2023-03-07T17:42:40.803Z,0.30
2023-03-07T17:45:10.057Z,0.50
2023-03-07T17:47:37.155Z,0.57
2023-03-07T17:50:08.093Z,1.63
2023-03-07T17:52:35.301Z,0.60
2023-03-07T17:55:02.255Z,0.87
2023-03-07T17:57:29.527Z,0.50
2023-03-07T17:59:56.368Z,2.00
2023-03-07T18:02:23.270Z,2.27
2023-03-07T18:04:51.578Z,1.13
2023-03-07T18:07:19.794Z,0.87
2023-03-07T18:09:48.477Z,0.80
2023-03-07T18:12:18.277Z,0.80
2023-03-07T18:14:45.021Z,1.77
2023-03-07T18:17:41.726Z,3.37
2023-03-07T18:20:16.783Z,0.83
2023-03-07T18:22:43.691Z,0.60
2023-03-07T18:25:32.343Z,0.90
2023-03-07T18:28:01.697Z,0.70
2023-03-07T18:30:28.685Z,1.23
2023-03-07T18:32:55.559Z,0.47
2023-03-07T18:35:23.483Z,0.73
2023-03-07T18:37:50.272Z,0.97
2023-03-07T18:40:20.515Z,0.80
2023-03-07T18:42:47.372Z,1.20
2023-03-07T18:45:14.192Z,0.50
2023-03-07T18:47:41.031Z,0.80
2023-03-07T18:50:27.230Z,0.50
2023-03-07T18:52:53.996Z,0.90
2023-03-07T18:55:20.792Z,0.60
2023-03-07T18:57:47.537Z,0.70
2023-03-07T19:00:15.325Z,0.67
2023-03-07T19:02:42.098Z,1.17
2023-03-07T19:05:09.180Z,0.70
2023-03-07T19:07:36.121Z,0.90
2023-03-07T19:10:03.003Z,1.43
2023-03-07T19:12:29.789Z,1.30
2023-03-07T19:14:56.538Z,0.90
2023-03-07T19:17:25.337Z,0.93
2023-03-07T19:19:58.976Z,0.40
2023-03-07T19:22:29.163Z,0.50
2023-03-07T19:24:55.844Z,0.70
2023-03-07T19:30:26.308Z,0.87
2023-03-07T19:32:53.036Z,0.80
2023-03-07T19:35:19.869Z,0.60
2023-03-07T19:37:46.720Z,2.10
2023-03-07T19:40:13.763Z,1.03
2023-03-07T19:42:40.752Z,1.40
2023-03-07T19:45:08.295Z,0.80
2023-03-07T19:47:35.042Z,0.83
2023-03-07T19:50:01.833Z,1.10
2023-03-07T19:52:28.677Z,2.97
2023-03-07T19:54:55.420Z,0.80
2023-03-07T19:57:22.725Z,0.60
2023-03-07T19:59:53.656Z,2.00
2023-03-07T20:02:20.754Z,2.23
2023-03-07T20:04:47.709Z,2.47
2023-03-07T20:07:14.431Z,2.43
2023-03-07T20:09:41.293Z,1.70
2023-03-07T20:12:10.163Z,1.67
2023-03-07T20:14:42.659Z,1.40
2023-03-07T20:17:11.025Z,0.60
2023-03-07T20:19:38.582Z,0.43
2023-03-07T20:22:05.839Z,1.13
2023-03-07T20:24:33.344Z,0.47
2023-03-07T20:27:00.386Z,0.70
2023-03-07T20:29:27.372Z,0.67
2023-03-07T20:31:54.728Z,1.10
2023-03-07T20:34:23.696Z,4.37
2023-03-07T20:36:52.068Z,9.53
2023-03-07T20:39:19.130Z,6.43
2023-03-07T20:41:45.914Z,7.30
2023-03-07T20:44:15.252Z,2.53
2023-03-07T20:46:43.422Z,5.50
2023-03-07T20:49:12.893Z,6.87
2023-03-07T20:51:40.885Z,5.60
2023-03-07T20:54:15.940Z,6.97
2023-03-07T20:56:43.937Z,3.83
2023-03-07T20:59:18.777Z,2.87
2023-03-07T21:01:46.028Z,2.40
2023-03-07T21:04:15.810Z,1.60
2023-03-07T21:06:43.902Z,1.27
2023-03-07T21:09:12.111Z,1.13
2023-03-07T21:11:47.025Z,1.83
2023-03-07T21:14:15.252Z,0.90
2023-03-07T21:16:43.816Z,0.97
2023-03-07T21:21:58.976Z,0.70
2023-03-07T21:24:25.792Z,1.03
2023-03-07T21:26:52.547Z,0.93
2023-03-07T21:29:19.222Z,0.70
2023-03-07T21:31:46.087Z,0.70
2023-03-07T21:34:14.119Z,0.60
2023-03-07T21:36:40.925Z,0.87
2023-03-07T21:39:09.890Z,0.80
2023-03-07T21:41:37.074Z,1.07
2023-03-07T21:44:03.905Z,0.70
2023-03-07T21:46:31.072Z,0.70
2023-03-07T21:48:59.322Z,0.50
2023-03-07T21:51:26.113Z,0.73
2023-03-07T21:53:52.796Z,0.97
2023-03-07T21:56:19.511Z,0.73
2023-03-07T21:59:04.956Z,1.30
2023-03-07T22:01:31.744Z,0.57
2023-03-07T22:03:59.363Z,0.60
2023-03-07T22:06:27.936Z,0.90
2023-03-07T22:08:54.748Z,1.00
2023-03-07T22:11:21.910Z,0.60
2023-03-07T22:13:48.703Z,0.73
2023-03-07T22:16:17.956Z,0.80
2023-03-07T22:18:44.771Z,1.50
2023-03-07T22:21:17.215Z,1.63
2023-03-07T22:23:44.444Z,1.20
2023-03-07T22:26:12.328Z,1.87
2023-03-07T22:28:41.071Z,1.40
2023-03-07T22:31:10.638Z,2.33
2023-03-07T22:33:37.485Z,2.77
2023-03-07T22:36:06.327Z,3.00
2023-03-07T22:38:52.628Z,3.80
2023-03-07T22:41:19.584Z,3.13
2023-03-07T22:44:04.790Z,1.67
2023-03-07T22:46:31.606Z,0.93
2023-03-07T22:48:58.365Z,0.93
2023-03-07T22:51:26.131Z,0.80
2023-03-07T22:53:53.292Z,0.70
2023-03-07T22:56:26.195Z,0.67
2023-03-07T22:58:53.597Z,0.50
2023-03-07T23:01:38.919Z,0.53
2023-03-07T23:04:08.841Z,0.50
2023-03-07T23:06:37.065Z,0.50
2023-03-07T23:09:05.607Z,0.57
2023-03-07T23:11:33.475Z,0.63
2023-03-07T23:14:00.551Z,0.80
2023-03-07T23:16:29.560Z,2.67
2023-03-07T23:18:58.011Z,1.13
2023-03-07T23:21:28.365Z,1.10
2023-03-07T23:23:55.878Z,1.03
2023-03-07T23:26:41.124Z,1.10
2023-03-07T23:29:09.799Z,0.90
2023-03-07T23:31:39.337Z,0.60
2023-03-07T23:34:09.314Z,0.70
2023-03-07T23:36:36.281Z,0.90
2023-03-07T23:39:03.533Z,0.60
2023-03-07T23:41:30.252Z,0.40
2023-03-07T23:43:59.128Z,0.80
2023-03-07T23:46:27.494Z,1.07
2023-03-07T23:48:54.728Z,0.57
2023-03-07T23:51:40.320Z,1.10
2023-03-07T23:54:07.232Z,1.07
2023-03-07T23:56:33.928Z,0.80
2023-03-07T23:59:00.731Z,0.80
